Ardmore, North Carolina
Current Conditions -  °F | °C
As of 3:54 PM on Monday 24 Nov 2014 (Local Time) from KINT Reporting Station
Clear Clear  
Wind Chill: 72°   Ceiling: Unl
Heat Index: 72°   Visibility: 10mi
Dew Point: 50°   Wind: 9mph
Humidity: 46%   Direction: 210°SSW
Pressure: 29.76"   Gusts: 25mph
Location:  36.0595°N, 80.3192°W
Report Text: KINT 242054Z AUTO 21008G22KT 10SM CLR 22/10 A2976 RMK AO2 SLP070 T02220100 53006
Loading
Personal Weather Stations






























Interactive Weather Map New forecast layout! Learn more

10-Day Weather Forecast

Advertisements
Track Severe Weather on mobile